Time,TemperatureF,DewpointF,PressureIn,WindDirection,WindDirectionDegrees,WindSpeedMPH,WindSpeedGustMPH,Humidity,HourlyPrecipIn,Conditions,Clouds,dailyrainin,SolarRadiationWatts/m^2,SoftwareType,DateUTC
2013-05-31 00:00:00,76.0,65.0,-100.00,SSE,157,7.0,-999.0,68,-99.99,,,-99.99,0.000000,,2013-05-31 04:00:00,
2013-05-31 00:33:00,76.0,65.0,-100.00,SSE,157,7.0,-999.0,68,-99.99,,,-99.99,0.000000,,2013-05-31 04:33:00,
2013-05-31 00:42:00,76.0,65.0,-100.00,SSE,157,7.0,-999.0,68,-99.99,,,-99.99,0.000000,,2013-05-31 04:42:00,
2013-05-31 00:53:00,76.0,65.0,-100.00,SSE,157,7.0,-999.0,68,-99.99,,,-99.99,0.000000,,2013-05-31 04:53:00,
2013-05-31 03:00:00,68.0,65.0,-100.00,SSW,202,7.0,-999.0,91,0.13,,,-99.99,0.000000,,2013-05-31 07:00:00,
2013-05-31 03:32:00,68.0,65.0,-100.00,SSW,202,7.0,-999.0,91,0.13,,,-99.99,0.000000,,2013-05-31 07:32:00,
2013-05-31 03:42:00,68.0,65.0,-100.00,SSW,202,7.0,-999.0,91,0.13,,,-99.99,0.000000,,2013-05-31 07:42:00,
2013-05-31 03:52:00,68.0,65.0,-100.00,SSW,202,7.0,-999.0,91,0.13,,,-99.99,0.000000,,2013-05-31 07:52:00,
2013-05-31 05:00:00,66.0,64.0,-100.00,SSE,157,7.0,-999.0,95,-99.99,,,-99.99,0.000000,,2013-05-31 09:00:00,
2013-05-31 05:32:00,66.0,64.0,-100.00,SSE,157,7.0,-999.0,95,-99.99,,,-99.99,0.000000,,2013-05-31 09:32:00,
2013-05-31 05:43:00,66.0,64.0,-100.00,SSE,157,7.0,-999.0,95,-99.99,,,-99.99,0.000000,,2013-05-31 09:43:00,
2013-05-31 05:53:00,66.0,64.0,-100.00,SSE,157,7.0,-999.0,95,-99.99,,,-99.99,0.000000,,2013-05-31 09:53:00,
2013-05-31 06:00:00,65.0,64.0,-100.00,SE,135,6.0,-999.0,97,-99.99,,,-99.99,0.000000,,2013-05-31 10:00:00,
2013-05-31 06:33:00,65.0,64.0,-100.00,SE,135,6.0,-999.0,97,-99.99,,,-99.99,0.000000,,2013-05-31 10:33:00,
2013-05-31 06:42:00,65.0,64.0,-100.00,SE,135,6.0,-999.0,97,-99.99,,,-99.99,0.000000,,2013-05-31 10:42:00,
2013-05-31 06:52:00,65.0,64.0,-100.00,SE,135,6.0,-999.0,97,-99.99,,,-99.99,0.000000,,2013-05-31 10:52:00,
2013-05-31 07:00:00,66.0,65.0,-100.00,SSE,157,6.0,-999.0,96,-99.99,,,-99.99,17.400000,,2013-05-31 11:00:00,
2013-05-31 07:32:00,66.0,65.0,-100.00,SSE,157,6.0,-999.0,96,-99.99,,,-99.99,17.400000,,2013-05-31 11:32:00,
2013-05-31 07:42:00,66.0,65.0,-100.00,SSE,157,6.0,-999.0,96,-99.99,,,-99.99,17.400000,,2013-05-31 11:42:00,
2013-05-31 07:52:00,66.0,65.0,-100.00,SSE,157,6.0,-999.0,96,-99.99,,,-99.99,17.400000,,2013-05-31 11:52:00,
2013-05-31 08:00:00,68.0,66.0,-100.00,South,180,8.0,-999.0,93,-99.99,,,-99.99,60.320000,,2013-05-31 12:00:00,
2013-05-31 08:32:00,68.0,66.0,-100.00,South,180,8.0,-999.0,93,-99.99,,,-99.99,60.320000,,2013-05-31 12:32:00,
2013-05-31 08:42:00,68.0,66.0,-100.00,South,180,8.0,-999.0,93,-99.99,,,-99.99,60.320000,,2013-05-31 12:42:00,
2013-05-31 08:52:00,68.0,66.0,-100.00,South,180,8.0,-999.0,93,-99.99,,,-99.99,60.320000,,2013-05-31 12:52:00,
2013-05-31 10:00:00,70.0,63.0,-100.00,South,180,7.0,-999.0,80,-99.99,,,-99.99,330.600006,,2013-05-31 14:00:00,
2013-05-31 10:32:00,70.0,63.0,-100.00,South,180,7.0,-999.0,80,-99.99,,,-99.99,330.600006,,2013-05-31 14:32:00,
2013-05-31 10:42:00,70.0,63.0,-100.00,South,180,7.0,-999.0,80,-99.99,,,-99.99,330.600006,,2013-05-31 14:42:00,
2013-05-31 10:52:00,70.0,63.0,-100.00,South,180,7.0,-999.0,80,-99.99,,,-99.99,330.600006,,2013-05-31 14:52:00,
2013-05-31 11:00:00,72.0,64.0,-100.00,South,180,8.0,-999.0,75,-99.99,,,-99.99,487.200012,,2013-05-31 15:00:00,
2013-05-31 11:33:00,72.0,64.0,-100.00,South,180,8.0,-999.0,75,-99.99,,,-99.99,487.200012,,2013-05-31 15:33:00,
2013-05-31 11:43:00,72.0,64.0,-100.00,South,180,8.0,-999.0,75,-99.99,,,-99.99,487.200012,,2013-05-31 15:43:00,
2013-05-31 11:53:00,72.0,64.0,-100.00,South,180,8.0,-999.0,75,-99.99,,,-99.99,487.200012,,2013-05-31 15:53:00,
2013-05-31 12:00:00,73.0,64.0,-100.00,South,180,8.0,-999.0,72,-99.99,,,-99.99,437.320007,,2013-05-31 16:00:00,
2013-05-31 12:33:00,73.0,64.0,-100.00,South,180,8.0,-999.0,72,-99.99,,,-99.99,437.320007,,2013-05-31 16:33:00,
2013-05-31 12:42:00,73.0,64.0,-100.00,South,180,8.0,-999.0,72,-99.99,,,-99.99,437.320007,,2013-05-31 16:42:00,
2013-05-31 12:52:00,73.0,64.0,-100.00,South,180,8.0,-999.0,72,-99.99,,,-99.99,437.320007,,2013-05-31 16:52:00,
2013-05-31 13:00:00,74.0,65.0,-100.00,South,180,8.0,-999.0,73,-99.99,,,-99.99,365.399994,,2013-05-31 17:00:00,
2013-05-31 13:32:00,74.0,65.0,-100.00,South,180,8.0,-999.0,73,-99.99,,,-99.99,365.399994,,2013-05-31 17:32:00,
2013-05-31 13:42:00,74.0,65.0,-100.00,South,180,8.0,-999.0,73,-99.99,,,-99.99,365.399994,,2013-05-31 17:42:00,
2013-05-31 13:52:00,74.0,65.0,-100.00,South,180,8.0,-999.0,73,-99.99,,,-99.99,365.399994,,2013-05-31 17:52:00,
2013-05-31 15:00:00,75.0,65.0,-100.00,South,180,7.0,-999.0,71,-99.99,,,-99.99,511.559998,,2013-05-31 19:00:00,
2013-05-31 15:32:00,75.0,65.0,-100.00,South,180,7.0,-999.0,71,-99.99,,,-99.99,511.559998,,2013-05-31 19:32:00,
2013-05-31 15:42:00,75.0,65.0,-100.00,South,180,7.0,-999.0,71,-99.99,,,-99.99,511.559998,,2013-05-31 19:42:00,
2013-05-31 15:52:00,75.0,65.0,-100.00,South,180,7.0,-999.0,71,-99.99,,,-99.99,511.559998,,2013-05-31 19:52:00,
2013-05-31 16:00:00,75.0,65.0,-100.00,South,180,9.0,-999.0,72,-99.99,,,-99.99,393.239990,,2013-05-31 20:00:00,
2013-05-31 16:32:00,75.0,65.0,-100.00,South,180,9.0,-999.0,72,-99.99,,,-99.99,393.239990,,2013-05-31 20:32:00,
2013-05-31 16:42:00,75.0,65.0,-100.00,South,180,9.0,-999.0,72,-99.99,,,-99.99,393.239990,,2013-05-31 20:42:00,
2013-05-31 16:52:00,75.0,65.0,-100.00,South,180,9.0,-999.0,72,-99.99,,,-99.99,393.239990,,2013-05-31 20:52:00,
2013-05-31 17:00:00,75.0,66.0,-100.00,South,180,8.0,-999.0,73,-99.99,,,-99.99,452.399994,,2013-05-31 21:00:00,
2013-05-31 17:33:00,75.0,66.0,-100.00,South,180,8.0,-999.0,73,-99.99,,,-99.99,452.399994,,2013-05-31 21:33:00,
2013-05-31 17:43:00,75.0,66.0,-100.00,South,180,8.0,-999.0,73,-99.99,,,-99.99,452.399994,,2013-05-31 21:43:00,
2013-05-31 17:54:00,75.0,66.0,-100.00,South,180,8.0,-999.0,73,-99.99,,,-99.99,452.399994,,2013-05-31 21:54:00,
2013-05-31 18:00:00,75.0,66.0,-100.00,South,180,7.0,-999.0,72,-99.99,,,-99.99,329.440002,,2013-05-31 22:00:00,
2013-05-31 18:33:00,75.0,66.0,-100.00,South,180,7.0,-999.0,72,-99.99,,,-99.99,329.440002,,2013-05-31 22:33:00,
2013-05-31 18:42:00,75.0,66.0,-100.00,South,180,7.0,-999.0,72,-99.99,,,-99.99,329.440002,,2013-05-31 22:42:00,
2013-05-31 18:53:00,75.0,66.0,-100.00,South,180,7.0,-999.0,72,-99.99,,,-99.99,329.440002,,2013-05-31 22:53:00,
2013-05-31 19:00:00,75.0,66.0,-100.00,South,180,6.0,-999.0,73,-99.99,,,-99.99,172.839996,,2013-05-31 23:00:00,
2013-05-31 19:32:00,75.0,66.0,-100.00,South,180,6.0,-999.0,73,-99.99,,,-99.99,172.839996,,2013-05-31 23:32:00,
2013-05-31 19:42:00,75.0,66.0,-100.00,South,180,6.0,-999.0,73,-99.99,,,-99.99,172.839996,,2013-05-31 23:42:00,
2013-05-31 19:52:00,75.0,66.0,-100.00,South,180,6.0,-999.0,73,-99.99,,,-99.99,172.839996,,2013-05-31 23:52:00,
2013-05-31 21:00:00,73.0,66.0,-100.00,SE,135,3.0,-999.0,79,-99.99,,,-99.99,17.400000,,2013-06-01 01:00:00,
2013-05-31 21:32:00,73.0,66.0,-100.00,SE,135,3.0,-999.0,79,-99.99,,,-99.99,17.400000,,2013-06-01 01:32:00,
2013-05-31 21:42:00,73.0,66.0,-100.00,SE,135,3.0,-999.0,79,-99.99,,,-99.99,17.400000,,2013-06-01 01:42:00,
2013-05-31 21:52:00,73.0,66.0,-100.00,SE,135,3.0,-999.0,79,-99.99,,,-99.99,17.400000,,2013-06-01 01:52:00,
2013-05-31 23:00:00,72.0,66.0,-100.00,SSE,157,4.0,-999.0,83,-99.99,,,-99.99,0.000000,,2013-06-01 03:00:00,
2013-05-31 23:33:00,72.0,66.0,-100.00,SSE,157,4.0,-999.0,83,-99.99,,,-99.99,0.000000,,2013-06-01 03:33:00,
2013-05-31 23:43:00,72.0,66.0,-100.00,SSE,157,4.0,-999.0,83,-99.99,,,-99.99,0.000000,,2013-06-01 03:43:00,
2013-05-31 23:53:00,72.0,66.0,-100.00,SSE,157,4.0,-999.0,83,-99.99,,,-99.99,0.000000,,2013-06-01 03:53:00,